Time;durP1;ratioP1;P1;durP2;ratioP2;P2;SDS_P1;SDS_P2;PMS_P1;PMS_P2;Temp;Humidity;BMP_temperature;BMP_pressure;BME280_temperature;BME280_humidity;BME280_pressure;Samples;Min_cycle;Max_cycle;Signal;HPM_P1;HPM_P2
2022/08/16 00:00:15;;;;;;;12.60;9.38;;;;;;;;;;4973604;28;20027;-76
2022/08/16 00:02:41;;;;;;;11.93;9.02;;;;;;;;;;4973324;28;20027;-76
2022/08/16 00:05:08;;;;;;;11.27;8.18;;;;;;;;;;4973233;28;20026;-76
2022/08/16 00:07:35;;;;;;;11.57;8.30;;;;;;;;;;4972270;28;20071;-77
2022/08/16 00:10:01;;;;;;;10.68;8.13;;;;;;;;;;4973047;28;20496;-76
2022/08/16 00:12:28;;;;;;;10.48;8.75;;;;;;;;;;4956037;28;20061;-77
2022/08/16 00:14:55;;;;;;;11.40;8.82;;;;;;;;;;4973475;28;20082;-77
2022/08/16 00:17:21;;;;;;;12.02;8.15;;;;;;;;;;4973363;28;20069;-75
2022/08/16 00:19:47;;;;;;;10.80;8.05;;;;;;;;;;4972614;28;20022;-76
2022/08/16 00:22:17;;;;;;;10.63;8.23;;;;;;;;;;4987914;28;20034;-76
2022/08/16 00:24:43;;;;;;;;;;;;;;;;;;4992289;28;20034;-76
2022/08/16 00:27:09;;;;;;;12.38;8.38;;;;;;;;;;4992576;28;20368;-76
2022/08/16 00:29:36;;;;;;;12.30;8.93;;;;;;;;;;4992428;28;20065;-76
2022/08/16 00:32:03;;;;;;;10.32;8.55;;;;;;;;;;4992592;28;20026;-76
2022/08/16 00:34:29;;;;;;;13.23;8.55;;;;;;;;;;4992462;28;20497;-77
2022/08/16 00:36:55;;;;;;;11.90;8.85;;;;;;;;;;4978771;28;20343;-76
2022/08/16 00:39:21;;;;;;;11.98;8.68;;;;;;;;;;4990075;28;20501;-76
2022/08/16 00:41:48;;;;;;;10.75;8.32;;;;;;;;;;4974362;28;20033;-75
2022/08/16 00:44:15;;;;;;;11.00;7.85;;;;;;;;;;4992028;28;20037;-76
2022/08/16 00:46:46;;;;;;;10.07;8.10;;;;;;;;;;4992007;28;20137;-76
2022/08/16 00:49:13;;;;;;;12.27;9.60;;;;;;;;;;4992182;28;20038;-76
2022/08/16 00:51:41;;;;;;;13.90;8.50;;;;;;;;;;4985230;28;20031;-76
2022/08/16 00:54:07;;;;;;;11.43;8.30;;;;;;;;;;4954388;28;20042;-76
2022/08/16 00:56:35;;;;;;;9.77;7.93;;;;;;;;;;4972666;28;20031;-76
2022/08/16 00:59:01;;;;;;;11.20;8.20;;;;;;;;;;4988889;28;20046;-76
2022/08/16 01:01:28;;;;;;;14.15;9.18;;;;;;;;;;4992281;28;20019;-76
2022/08/16 01:03:54;;;;;;;12.43;9.07;;;;;;;;;;4991459;28;20392;-76
2022/08/16 01:06:22;;;;;;;11.77;9.52;;;;;;;;;;4974359;28;20037;-76
2022/08/16 01:08:52;;;;;;;10.95;8.60;;;;;;;;;;4990863;28;20105;-76
2022/08/16 01:11:18;;;;;;;13.63;9.20;;;;;;;;;;4991053;28;20042;-76
2022/08/16 01:13:45;;;;;;;11.50;8.60;;;;;;;;;;4991452;28;20653;-77
2022/08/16 01:16:17;;;;;;;11.40;9.43;;;;;;;;;;4992202;28;20421;-76
2022/08/16 01:19:06;;;;;;;10.43;8.63;;;;;;;;;;4989077;28;20042;-75
2022/08/16 01:21:32;;;;;;;12.53;10.27;;;;;;;;;;4971951;28;20034;-75
2022/08/16 01:24:13;;;;;;;15.40;9.10;;;;;;;;;;4972244;28;20023;-77
2022/08/16 01:26:40;;;;;;;11.43;8.52;;;;;;;;;;4980505;28;20030;-76
2022/08/16 01:29:09;;;;;;;14.20;10.35;;;;;;;;;;4973908;28;20057;-77
2022/08/16 01:31:35;;;;;;;11.10;8.82;;;;;;;;;;4991472;28;20916;-76
2022/08/16 01:34:01;;;;;;;12.27;9.00;;;;;;;;;;4991175;28;20034;-76
2022/08/16 01:36:28;;;;;;;12.73;10.65;;;;;;;;;;4981831;28;20093;-76
2022/08/16 01:38:54;;;;;;;14.55;10.32;;;;;;;;;;4987291;28;20034;-76
2022/08/16 01:41:22;;;;;;;12.57;10.27;;;;;;;;;;4990776;28;20065;-76
2022/08/16 01:43:48;;;;;;;13.07;10.65;;;;;;;;;;4991037;28;20038;-75
2022/08/16 01:46:35;;;;;;;14.75;11.13;;;;;;;;;;4972962;28;20633;-75
2022/08/16 01:49:04;;;;;;;15.32;11.55;;;;;;;;;;4971196;28;20037;-74
2022/08/16 01:51:30;;;;;;;13.25;10.88;;;;;;;;;;4970872;28;20458;-75
2022/08/16 01:53:57;;;;;;;15.88;11.38;;;;;;;;;;4971685;28;20142;-75
2022/08/16 01:56:23;;;;;;;15.15;10.60;;;;;;;;;;4972624;28;20031;-75
2022/08/16 01:58:51;;;;;;;17.00;11.05;;;;;;;;;;4972998;28;20085;-75
2022/08/16 02:01:18;;;;;;;14.10;11.73;;;;;;;;;;4974037;28;20103;-76
2022/08/16 02:03:44;;;;;;;13.40;11.65;;;;;;;;;;4973104;28;20083;-75
2022/08/16 02:06:10;;;;;;;13.32;11.15;;;;;;;;;;4971773;28;20023;-76
2022/08/16 02:08:37;;;;;;;16.75;10.85;;;;;;;;;;4954294;28;20473;-76
2022/08/16 02:11:23;;;;;;;13.95;11.50;;;;;;;;;;4971801;28;20370;-76
2022/08/16 02:13:49;;;;;;;17.42;11.80;;;;;;;;;;4953602;28;20119;-76
2022/08/16 02:16:15;;;;;;;16.27;12.65;;;;;;;;;;4988221;28;20054;-76
2022/08/16 02:18:42;;;;;;;11.95;10.60;;;;;;;;;;4988625;28;20038;-76
2022/08/16 02:21:09;;;;;;;17.63;12.20;;;;;;;;;;4972742;28;20026;-76
2022/08/16 02:23:37;;;;;;;13.93;11.85;;;;;;;;;;4989705;28;20026;-76
2022/08/16 02:26:04;;;;;;;14.43;12.15;;;;;;;;;;4990074;28;20029;-76
2022/08/16 02:28:30;;;;;;;13.70;12.18;;;;;;;;;;4990184;28;20084;-76
2022/08/16 02:30:58;;;;;;;15.80;12.77;;;;;;;;;;4989751;28;20034;-76
2022/08/16 02:33:25;;;;;;;15.57;11.88;;;;;;;;;;4972292;28;20496;-77
2022/08/16 02:35:51;;;;;;;14.35;12.40;;;;;;;;;;4975153;28;20088;-76
2022/08/16 02:38:17;;;;;;;13.63;12.23;;;;;;;;;;4989282;28;20121;-76
2022/08/16 02:40:43;;;;;;;13.98;12.18;;;;;;;;;;4989801;28;20023;-76
2022/08/16 02:43:09;;;;;;;13.70;12.02;;;;;;;;;;4976873;28;20038;-75
2022/08/16 02:45:36;;;;;;;14.48;12.75;;;;;;;;;;4970268;28;20034;-76
2022/08/16 02:48:02;;;;;;;14.02;11.65;;;;;;;;;;4970471;28;20062;-76
2022/08/16 02:50:28;;;;;;;17.80;12.55;;;;;;;;;;4970668;28;20030;-76
2022/08/16 02:52:54;;;;;;;14.75;11.55;;;;;;;;;;4982737;28;20026;-76
2022/08/16 02:55:20;;;;;;;16.52;12.23;;;;;;;;;;4989708;28;20027;-76
2022/08/16 02:57:47;;;;;;;12.77;11.32;;;;;;;;;;4989809;28;20081;-76
2022/08/16 03:00:17;;;;;;;15.90;11.90;;;;;;;;;;4971748;28;20438;-75
2022/08/16 03:02:44;;;;;;;14.23;12.15;;;;;;;;;;4989357;28;20093;-75
2022/08/16 03:05:11;;;;;;;15.57;13.10;;;;;;;;;;4989465;28;20036;-75
2022/08/16 03:07:37;;;;;;;15.52;12.60;;;;;;;;;;4989382;28;20081;-75
2022/08/16 03:10:07;;;;;;;17.25;13.68;;;;;;;;;;4990002;28;20027;-75
2022/08/16 03:12:33;;;;;;;16.58;12.82;;;;;;;;;;4972406;28;20027;-75
2022/08/16 03:14:59;;;;;;;14.73;12.93;;;;;;;;;;4989743;28;20037;-76
2022/08/16 03:17:25;;;;;;;16.15;14.05;;;;;;;;;;4990090;28;20070;-75
2022/08/16 03:19:52;;;;;;;17.02;14.23;;;;;;;;;;4970336;28;20038;-75
2022/08/16 03:22:19;;;;;;;18.00;14.18;;;;;;;;;;4973995;28;20023;-76
2022/08/16 03:24:45;;;;;;;20.77;18.20;;;;;;;;;;4973960;28;20030;-76
2022/08/16 03:27:11;;;;;;;22.58;17.17;;;;;;;;;;4973437;28;20035;-75
2022/08/16 03:29:37;;;;;;;20.00;16.27;;;;;;;;;;4985395;28;20058;-75
2022/08/16 03:32:04;;;;;;;21.70;19.45;;;;;;;;;;4993007;28;20022;-76
2022/08/16 03:34:32;;;;;;;23.02;20.23;;;;;;;;;;4993470;28;20495;-76
2022/08/16 03:36:59;;;;;;;22.38;19.25;;;;;;;;;;4979499;28;20026;-75
2022/08/16 03:39:25;;;;;;;22.48;18.63;;;;;;;;;;4973774;28;20090;-75
2022/08/16 03:41:51;;;;;;;24.33;19.92;;;;;;;;;;4956422;28;20505;-76
2022/08/16 03:44:18;;;;;;;24.45;21.40;;;;;;;;;;4973419;28;20027;-75
2022/08/16 03:46:44;;;;;;;26.65;20.88;;;;;;;;;;4973312;28;20054;-75
2022/08/16 03:49:11;;;;;;;26.42;22.83;;;;;;;;;;4991457;28;20030;-75
2022/08/16 03:51:37;;;;;;;24.27;21.77;;;;;;;;;;4992991;28;20022;-75
2022/08/16 03:54:03;;;;;;;24.70;21.60;;;;;;;;;;4992847;28;20413;-75
2022/08/16 03:56:30;;;;;;;26.40;22.88;;;;;;;;;;4992083;28;20033;-75
2022/08/16 03:58:56;;;;;;;26.65;23.65;;;;;;;;;;4992085;28;20034;-75
2022/08/16 04:01:23;;;;;;;27.67;22.95;;;;;;;;;;4975313;28;20019;-74
2022/08/16 04:03:52;;;;;;;28.52;24.38;;;;;;;;;;4992855;28;20037;-75
2022/08/16 04:06:18;;;;;;;27.23;24.38;;;;;;;;;;4992957;28;20026;-74
2022/08/16 04:08:44;;;;;;;25.73;22.77;;;;;;;;;;4992388;28;20539;-75
2022/08/16 04:11:10;;;;;;;26.30;23.38;;;;;;;;;;4992283;28;20173;-75
2022/08/16 04:13:36;;;;;;;25.77;22.98;;;;;;;;;;4992418;28;20113;-75
2022/08/16 04:16:02;;;;;;;29.40;24.02;;;;;;;;;;4992348;28;20027;-75
2022/08/16 04:18:29;;;;;;;29.25;26.17;;;;;;;;;;4981562;28;20070;-74
2022/08/16 04:20:55;;;;;;;26.92;24.02;;;;;;;;;;4972813;28;20816;-76
2022/08/16 04:23:22;;;;;;;29.13;25.98;;;;;;;;;;4973389;28;20031;-75
2022/08/16 04:25:49;;;;;;;28.80;25.50;;;;;;;;;;4985881;28;20054;-75
2022/08/16 04:28:16;;;;;;;30.25;26.38;;;;;;;;;;4992573;28;20045;-75
2022/08/16 04:30:43;;;;;;;27.15;24.23;;;;;;;;;;4992859;28;20019;-76
2022/08/16 04:33:09;;;;;;;28.77;25.67;;;;;;;;;;4994721;28;20076;-76
2022/08/16 04:35:35;;;;;;;30.35;27.08;;;;;;;;;;4990116;28;20037;-75
2022/08/16 04:38:01;;;;;;;30.20;26.42;;;;;;;;;;4972697;28;20038;-75
2022/08/16 04:40:27;;;;;;;31.77;28.27;;;;;;;;;;4972390;28;20031;-75
2022/08/16 04:42:54;;;;;;;31.15;27.77;;;;;;;;;;4972813;28;20109;-75
2022/08/16 04:45:20;;;;;;;29.25;26.02;;;;;;;;;;4972580;28;20023;-76
2022/08/16 04:47:47;;;;;;;29.95;26.85;;;;;;;;;;4958786;28;20057;-75
2022/08/16 04:50:14;;;;;;;30.83;25.90;;;;;;;;;;4972531;28;20030;-76
2022/08/16 04:52:41;;;;;;;29.33;26.23;;;;;;;;;;4972166;28;20031;-75
2022/08/16 04:55:09;;;;;;;30.80;27.50;;;;;;;;;;4971873;28;20362;-75
2022/08/16 04:57:35;;;;;;;31.58;28.13;;;;;;;;;;4954668;28;20153;-75
2022/08/16 05:00:01;;;;;;;31.83;28.65;;;;;;;;;;4972103;28;20027;-75
2022/08/16 05:02:27;;;;;;;33.92;29.45;;;;;;;;;;4972604;28;20577;-75
2022/08/16 05:04:53;;;;;;;31.25;28.02;;;;;;;;;;4972722;28;20030;-74
2022/08/16 05:07:20;;;;;;;32.10;28.85;;;;;;;;;;4971806;28;20478;-75
2022/08/16 05:09:46;;;;;;;30.38;27.13;;;;;;;;;;4972009;28;21192;-75
2022/08/16 05:12:12;;;;;;;32.88;29.38;;;;;;;;;;4972753;28;20481;-75
2022/08/16 05:14:38;;;;;;;31.95;28.55;;;;;;;;;;4972950;28;20516;-76
2022/08/16 05:17:04;;;;;;;33.13;29.50;;;;;;;;;;4972111;28;20019;-75
2022/08/16 05:19:30;;;;;;;32.63;29.10;;;;;;;;;;4989796;28;20070;-75
2022/08/16 05:21:56;;;;;;;31.05;27.45;;;;;;;;;;4992016;28;20023;-75
2022/08/16 05:24:22;;;;;;;33.00;29.50;;;;;;;;;;4991181;28;20477;-75
2022/08/16 05:26:50;;;;;;;31.35;27.95;;;;;;;;;;4973316;28;20030;-76
2022/08/16 05:29:16;;;;;;;30.77;27.67;;;;;;;;;;4991153;28;20034;-74
2022/08/16 05:31:42;;;;;;;31.58;28.48;;;;;;;;;;4988034;28;20062;-75
2022/08/16 05:34:08;;;;;;;32.70;29.08;;;;;;;;;;4980227;28;20026;-76
2022/08/16 05:36:37;;;;;;;33.45;29.63;;;;;;;;;;4980610;28;20022;-76
2022/08/16 05:39:07;;;;;;;31.90;28.27;;;;;;;;;;4981057;28;20505;-76
2022/08/16 05:41:34;;;;;;;33.05;29.55;;;;;;;;;;4981093;28;20053;-76
2022/08/16 05:44:00;;;;;;;32.22;29.08;;;;;;;;;;4979981;28;20023;-75
2022/08/16 05:46:26;;;;;;;33.13;29.73;;;;;;;;;;4961950;28;20043;-75
2022/08/16 05:48:52;;;;;;;31.95;28.52;;;;;;;;;;4984042;28;20057;-72
2022/08/16 05:51:18;;;;;;;24.30;21.63;;;;;;;;;;4962738;28;20077;-69
2022/08/16 05:53:44;;;;;;;28.42;25.35;;;;;;;;;;4979550;28;20026;-72
2022/08/16 05:56:11;;;;;;;27.83;24.83;;;;;;;;;;4975810;28;20030;-69
2022/08/16 05:58:37;;;;;;;28.52;25.60;;;;;;;;;;4981190;28;20034;-71
2022/08/16 06:01:03;;;;;;;23.83;21.40;;;;;;;;;;4989801;28;20037;-71
2022/08/16 06:03:29;;;;;;;23.30;20.70;;;;;;;;;;4990519;28;20091;-71
2022/08/16 06:05:57;;;;;;;18.65;16.70;;;;;;;;;;4990075;28;20104;-71
2022/08/16 06:08:23;;;;;;;18.27;16.30;;;;;;;;;;4990509;28;20077;-70
2022/08/16 06:10:49;;;;;;;29.55;24.27;;;;;;;;;;4990857;28;20031;-71
2022/08/16 06:13:18;;;;;;;31.05;26.75;;;;;;;;;;4990838;28;20034;-70
2022/08/16 06:15:44;;;;;;;29.17;26.17;;;;;;;;;;4990338;28;20038;-70
2022/08/16 06:18:10;;;;;;;25.63;22.08;;;;;;;;;;4990141;28;20512;-70
2022/08/16 06:20:37;;;;;;;28.17;25.15;;;;;;;;;;4986246;28;20540;-69
2022/08/16 06:23:03;;;;;;;25.23;22.50;;;;;;;;;;4970565;28;20030;-70
2022/08/16 06:25:29;;;;;;;23.85;21.05;;;;;;;;;;4977463;28;20035;-70
2022/08/16 06:27:55;;;;;;;27.90;24.98;;;;;;;;;;4988390;28;20041;-68
2022/08/16 06:30:22;;;;;;;26.13;23.50;;;;;;;;;;4977318;28;20474;-69
2022/08/16 06:32:48;;;;;;;12.82;11.23;;;;;;;;;;4985750;28;20075;-70
2022/08/16 06:35:16;;;;;;;16.98;15.18;;;;;;;;;;4990814;28;20057;-70
2022/08/16 06:37:42;;;;;;;12.75;9.82;;;;;;;;;;4986318;28;20042;-71
2022/08/16 06:40:08;;;;;;;15.82;10.35;;;;;;;;;;4989934;28;20034;-72
2022/08/16 06:42:35;;;;;;;21.23;18.02;;;;;;;;;;4989144;28;20030;-72
2022/08/16 06:45:01;;;;;;;17.35;15.52;;;;;;;;;;4988946;28;20026;-71
2022/08/16 06:47:27;;;;;;;14.40;9.65;;;;;;;;;;4992748;28;20055;-70
2022/08/16 06:49:53;;;;;;;22.10;16.70;;;;;;;;;;4988295;28;20019;-71
2022/08/16 06:52:19;;;;;;;16.88;15.15;;;;;;;;;;4987080;28;20088;-71
2022/08/16 06:54:45;;;;;;;15.55;11.50;;;;;;;;;;4987546;28;20030;-70
2022/08/16 06:57:12;;;;;;;23.50;20.17;;;;;;;;;;4986266;28;20038;-71
2022/08/16 06:59:38;;;;;;;21.58;19.35;;;;;;;;;;4973321;28;20043;-70
2022/08/16 07:02:04;;;;;;;26.42;23.83;;;;;;;;;;4972921;28;20031;-71
2022/08/16 07:04:31;;;;;;;28.65;21.92;;;;;;;;;;4966528;28;20019;-71
2022/08/16 07:06:57;;;;;;;30.67;27.25;;;;;;;;;;4988074;28;20022;-70
2022/08/16 07:09:23;;;;;;;25.25;21.10;;;;;;;;;;4988205;28;20031;-72
2022/08/16 07:11:49;;;;;;;27.20;22.15;;;;;;;;;;4986391;28;20070;-70
2022/08/16 07:14:15;;;;;;;21.02;17.33;;;;;;;;;;4969143;28;20066;-72
2022/08/16 07:16:41;;;;;;;20.35;18.15;;;;;;;;;;4972852;28;20042;-69
2022/08/16 07:19:08;;;;;;;23.25;19.35;;;;;;;;;;4962480;28;20042;-70
2022/08/16 07:21:40;;;;;;;26.05;23.35;;;;;;;;;;4976254;28;20436;-72
2022/08/16 07:24:06;;;;;;;26.38;23.50;;;;;;;;;;4987159;28;20018;-70
2022/08/16 07:26:32;;;;;;;26.67;23.38;;;;;;;;;;4978639;28;20443;-70
2022/08/16 07:28:59;;;;;;;22.23;19.70;;;;;;;;;;4988431;28;20023;-70
2022/08/16 07:31:26;;;;;;;19.10;17.13;;;;;;;;;;4956950;28;20509;-71
2022/08/16 07:33:52;;;;;;;27.65;24.23;;;;;;;;;;4970168;28;20509;-71
2022/08/16 07:36:18;;;;;;;23.88;21.42;;;;;;;;;;4979049;28;20089;-70
2022/08/16 07:38:44;;;;;;;18.55;14.32;;;;;;;;;;4988545;28;20046;-72
2022/08/16 07:41:10;;;;;;;16.17;13.90;;;;;;;;;;4987814;28;20096;-71
2022/08/16 07:43:37;;;;;;;21.58;18.38;;;;;;;;;;4977040;28;20049;-71
2022/08/16 07:46:03;;;;;;;19.60;17.33;;;;;;;;;;4989072;28;20537;-70
2022/08/16 07:48:29;;;;;;;16.88;15.02;;;;;;;;;;4971487;28;20030;-71
2022/08/16 07:50:56;;;;;;;14.07;12.57;;;;;;;;;;4977393;28;20035;-71
2022/08/16 07:53:22;;;;;;;16.13;14.50;;;;;;;;;;4976385;28;20041;-71
2022/08/16 07:55:48;;;;;;;19.23;16.13;;;;;;;;;;4978557;28;20026;-70
2022/08/16 07:58:16;;;;;;;19.48;16.63;;;;;;;;;;4985329;28;20108;-70
2022/08/16 08:00:42;;;;;;;14.27;11.98;;;;;;;;;;4979811;28;20027;-71
2022/08/16 08:03:08;;;;;;;17.30;14.07;;;;;;;;;;4986378;28;20393;-72
2022/08/16 08:05:34;;;;;;;19.20;16.00;;;;;;;;;;4991762;28;20027;-71
2022/08/16 08:08:00;;;;;;;15.70;13.63;;;;;;;;;;4975422;28;20034;-72
2022/08/16 08:10:26;;;;;;;17.45;15.65;;;;;;;;;;4984026;28;20045;-71
2022/08/16 08:12:53;;;;;;;14.38;11.85;;;;;;;;;;4974596;28;20531;-70
2022/08/16 08:15:20;;;;;;;16.30;12.82;;;;;;;;;;4976018;28;20150;-71
2022/08/16 08:17:47;;;;;;;14.10;12.02;;;;;;;;;;4979032;28;20033;-69
2022/08/16 08:20:16;;;;;;;17.77;15.60;;;;;;;;;;4993296;28;20034;-70
2022/08/16 08:22:45;;;;;;;11.07;9.32;;;;;;;;;;4992658;28;20417;-70
2022/08/16 08:25:11;;;;;;;18.10;12.15;;;;;;;;;;4975003;28;20081;-69
2022/08/16 08:27:37;;;;;;;13.60;10.30;;;;;;;;;;4985139;28;20030;-71
2022/08/16 08:30:04;;;;;;;10.43;8.73;;;;;;;;;;4983572;28;20037;-71
2022/08/16 08:32:30;;;;;;;12.13;7.82;;;;;;;;;;4970105;28;20535;-70
2022/08/16 08:34:58;;;;;;;12.95;11.55;;;;;;;;;;4971942;28;20097;-70
2022/08/16 08:37:26;;;;;;;12.10;10.02;;;;;;;;;;4988142;28;20081;-70
2022/08/16 08:39:52;;;;;;;15.07;13.48;;;;;;;;;;4992785;28;20054;-70
2022/08/16 08:42:18;;;;;;;14.05;12.30;;;;;;;;;;4990874;28;20058;-71
2022/08/16 08:44:44;;;;;;;12.88;11.57;;;;;;;;;;4991939;28;20054;-69
2022/08/16 08:47:10;;;;;;;14.85;11.80;;;;;;;;;;4991667;28;20505;-70
2022/08/16 08:49:37;;;;;;;13.82;12.30;;;;;;;;;;4991807;28;20444;-69
2022/08/16 08:52:06;;;;;;;14.23;10.52;;;;;;;;;;4992011;28;20553;-71
2022/08/16 08:54:33;;;;;;;11.18;8.75;;;;;;;;;;4990623;28;20114;-71
2022/08/16 08:56:59;;;;;;;14.02;11.55;;;;;;;;;;4974136;28;20034;-71
2022/08/16 08:59:26;;;;;;;10.63;9.25;;;;;;;;;;4974343;28;20039;-69
2022/08/16 09:01:53;;;;;;;14.85;10.43;;;;;;;;;;4991625;28;20699;-69
2022/08/16 09:04:19;;;;;;;11.25;7.72;;;;;;;;;;4974271;28;20556;-71
2022/08/16 09:06:45;;;;;;;15.48;12.45;;;;;;;;;;4991887;28;20117;-70
2022/08/16 09:09:11;;;;;;;17.45;12.68;;;;;;;;;;4992408;28;20788;-70
2022/08/16 09:11:38;;;;;;;15.02;13.45;;;;;;;;;;4992378;28;20030;-70
2022/08/16 09:14:04;;;;;;;11.90;9.63;;;;;;;;;;4992163;28;20023;-71
2022/08/16 09:16:31;;;;;;;16.30;12.65;;;;;;;;;;4987816;28;20027;-70
2022/08/16 09:18:57;;;;;;;12.48;8.75;;;;;;;;;;4990411;28;20043;-71
2022/08/16 09:21:23;;;;;;;12.23;9.90;;;;;;;;;;4990255;28;20033;-71
2022/08/16 09:23:50;;;;;;;12.68;9.20;;;;;;;;;;4992248;28;20027;-72
2022/08/16 09:26:16;;;;;;;15.80;11.63;;;;;;;;;;4991984;28;20035;-70
2022/08/16 09:28:44;;;;;;;14.77;12.40;;;;;;;;;;4974805;28;20026;-70
2022/08/16 09:31:12;;;;;;;14.73;9.95;;;;;;;;;;4992190;28;20077;-71
2022/08/16 09:33:39;;;;;;;14.75;9.60;;;;;;;;;;4991984;28;20037;-72
2022/08/16 09:36:06;;;;;;;14.25;11.07;;;;;;;;;;4966823;28;20019;-71
2022/08/16 09:38:34;;;;;;;8.98;6.07;;;;;;;;;;4971907;28;20053;-71
2022/08/16 09:41:01;;;;;;;9.07;5.43;;;;;;;;;;4986264;28;20757;-71
2022/08/16 09:43:27;;;;;;;11.25;8.55;;;;;;;;;;4990536;28;20037;-71
2022/08/16 09:45:53;;;;;;;13.05;10.57;;;;;;;;;;4987994;28;20022;-71
2022/08/16 09:48:19;;;;;;;10.75;9.05;;;;;;;;;;4988379;28;20049;-70
2022/08/16 09:50:47;;;;;;;13.57;9.70;;;;;;;;;;4989792;28;20179;-71
2022/08/16 09:53:14;;;;;;;16.50;13.27;;;;;;;;;;4992207;28;20018;-71
2022/08/16 09:55:41;;;;;;;13.23;10.73;;;;;;;;;;4985377;28;20031;-70
2022/08/16 09:58:07;;;;;;;11.55;8.55;;;;;;;;;;4972295;28;20034;-70
2022/08/16 10:00:33;;;;;;;11.77;8.07;;;;;;;;;;4972193;28;20042;-69
2022/08/16 10:03:00;;;;;;;11.90;8.93;;;;;;;;;;4956964;28;20023;-70
2022/08/16 10:05:26;;;;;;;13.40;8.98;;;;;;;;;;4974773;28;20501;-70
2022/08/16 10:07:52;;;;;;;9.57;6.35;;;;;;;;;;4973542;28;20035;-71
2022/08/16 10:10:21;;;;;;;11.18;9.27;;;;;;;;;;4972974;28;20086;-70
2022/08/16 10:15:33;;;;;;;10.73;6.93;;;;;;;;;;4973418;28;20041;-70
2022/08/16 10:18:00;;;;;;;11.75;9.02;;;;;;;;;;4973156;28;20049;-69
2022/08/16 10:20:26;;;;;;;10.93;9.32;;;;;;;;;;4974779;28;20097;-70
2022/08/16 10:22:52;;;;;;;14.95;12.18;;;;;;;;;;4972993;28;20035;-72
2022/08/16 10:25:18;;;;;;;10.88;6.88;;;;;;;;;;4973170;28;20082;-71
2022/08/16 10:27:46;;;;;;;9.93;8.15;;;;;;;;;;4973194;28;20027;-73
2022/08/16 10:30:12;;;;;;;10.15;6.20;;;;;;;;;;4976259;28;20046;-72
2022/08/16 10:32:39;;;;;;;15.32;12.23;;;;;;;;;;4989224;28;20036;-72
2022/08/16 10:35:06;;;;;;;8.10;4.97;;;;;;;;;;4990661;28;20030;-72
2022/08/16 10:37:33;;;;;;;9.02;5.85;;;;;;;;;;4972926;28;20063;-76
2022/08/16 10:40:00;;;;;;;13.13;7.93;;;;;;;;;;4972522;28;20027;-74
2022/08/16 10:42:27;;;;;;;8.60;6.32;;;;;;;;;;4973195;28;20031;-73
2022/08/16 10:44:55;;;;;;;10.73;8.70;;;;;;;;;;4990356;28;20034;-74
2022/08/16 10:47:21;;;;;;;10.95;8.98;;;;;;;;;;4991788;28;20189;-74
2022/08/16 10:49:47;;;;;;;11.18;7.30;;;;;;;;;;4981138;28;20031;-74
2022/08/16 10:52:13;;;;;;;8.02;5.22;;;;;;;;;;4983693;28;20033;-73
2022/08/16 10:54:39;;;;;;;11.40;8.52;;;;;;;;;;4989243;28;20034;-77
2022/08/16 10:57:06;;;;;;;7.95;5.47;;;;;;;;;;4987150;28;20073;-76
2022/08/16 10:59:33;;;;;;;8.35;6.22;;;;;;;;;;4976444;28;20062;-75
2022/08/16 11:02:00;;;;;;;14.38;11.23;;;;;;;;;;4992427;28;20380;-73
2022/08/16 11:04:26;;;;;;;10.13;5.25;;;;;;;;;;4974228;28;20499;-73
2022/08/16 11:06:53;;;;;;;6.55;4.65;;;;;;;;;;4993071;28;20485;-74
2022/08/16 11:09:19;;;;;;;11.35;6.07;;;;;;;;;;4991978;28;20392;-73
2022/08/16 11:11:45;;;;;;;7.90;4.68;;;;;;;;;;4991393;28;20018;-72
2022/08/16 11:14:12;;;;;;;10.88;6.18;;;;;;;;;;4974528;28;20409;-72
2022/08/16 11:16:38;;;;;;;10.93;8.73;;;;;;;;;;4974067;28;20481;-72
2022/08/16 11:19:05;;;;;;;11.30;8.77;;;;;;;;;;4991806;28;20034;-73
2022/08/16 11:21:31;;;;;;;10.18;5.47;;;;;;;;;;4991988;28;20018;-73
2022/08/16 11:23:57;;;;;;;7.25;4.88;;;;;;;;;;4990560;28;20023;-72
2022/08/16 11:26:23;;;;;;;11.88;7.55;;;;;;;;;;4991648;28;20031;-72
2022/08/16 11:28:49;;;;;;;7.95;6.78;;;;;;;;;;4990691;28;20030;-73
2022/08/16 11:31:16;;;;;;;6.55;5.43;;;;;;;;;;4990509;28;20073;-72
2022/08/16 11:33:42;;;;;;;7.65;5.57;;;;;;;;;;4989999;28;20030;-72
2022/08/16 11:36:09;;;;;;;7.00;4.90;;;;;;;;;;4983348;28;20019;-71
2022/08/16 11:38:35;;;;;;;10.02;5.60;;;;;;;;;;4971680;28;20077;-72
2022/08/16 11:41:02;;;;;;;9.07;5.32;;;;;;;;;;4973617;28;20031;-72
2022/08/16 11:43:33;;;;;;;9.50;6.97;;;;;;;;;;4974097;28;20094;-72
2022/08/16 11:46:00;;;;;;;9.65;6.13;;;;;;;;;;4992303;28;20050;-72
2022/08/16 11:48:27;;;;;;;8.05;5.50;;;;;;;;;;4976015;28;20121;-73
2022/08/16 11:50:53;;;;;;;8.82;5.82;;;;;;;;;;4993482;28;20061;-73
2022/08/16 11:53:20;;;;;;;8.20;5.38;;;;;;;;;;4992956;28;20049;-73
2022/08/16 11:55:47;;;;;;;7.25;4.55;;;;;;;;;;4992782;28;20034;-72
2022/08/16 11:58:14;;;;;;;7.78;5.00;;;;;;;;;;4992971;28;20038;-72
2022/08/16 12:00:41;;;;;;;7.82;4.57;;;;;;;;;;4992884;28;20034;-73
2022/08/16 12:03:08;;;;;;;7.32;5.00;;;;;;;;;;4975797;28;20066;-72
2022/08/16 12:05:35;;;;;;;8.30;4.40;;;;;;;;;;4992350;28;20066;-72
2022/08/16 12:08:02;;;;;;;7.07;5.28;;;;;;;;;;4992816;28;20469;-73
2022/08/16 12:10:28;;;;;;;6.20;4.43;;;;;;;;;;4993340;28;20027;-74
2022/08/16 12:12:55;;;;;;;7.25;4.43;;;;;;;;;;4992953;28;20030;-73
2022/08/16 12:15:21;;;;;;;6.95;4.32;;;;;;;;;;4991529;28;20096;-74
2022/08/16 12:17:48;;;;;;;6.88;4.30;;;;;;;;;;4992827;28;20034;-75
2022/08/16 12:20:19;;;;;;;6.53;4.72;;;;;;;;;;4994108;28;20038;-74
2022/08/16 12:22:45;;;;;;;5.88;4.32;;;;;;;;;;4993304;28;20418;-74
2022/08/16 12:25:15;;;;;;;7.15;5.20;;;;;;;;;;4992940;28;20036;-74
2022/08/16 12:27:43;;;;;;;8.77;5.32;;;;;;;;;;4992246;28;20053;-73
2022/08/16 12:30:09;;;;;;;6.53;5.25;;;;;;;;;;4974577;28;20117;-73
2022/08/16 12:32:35;;;;;;;6.97;5.25;;;;;;;;;;4991595;28;20035;-74
2022/08/16 12:35:01;;;;;;;7.60;4.80;;;;;;;;;;4992491;28;20061;-74
2022/08/16 12:37:28;;;;;;;7.47;5.82;;;;;;;;;;4974682;28;20034;-74
2022/08/16 12:39:55;;;;;;;7.57;4.65;;;;;;;;;;4972804;28;20042;-73
2022/08/16 12:42:22;;;;;;;6.40;4.93;;;;;;;;;;4954965;28;20489;-74
2022/08/16 12:44:48;;;;;;;7.88;5.93;;;;;;;;;;4971659;28;20092;-74
2022/08/16 12:50:00;;;;;;;7.88;5.32;;;;;;;;;;4972037;28;20155;-74
2022/08/16 12:52:28;;;;;;;6.78;4.65;;;;;;;;;;4981237;28;20465;-74
2022/08/16 12:54:56;;;;;;;7.95;4.88;;;;;;;;;;4980034;28;20027;-73
2022/08/16 12:57:24;;;;;;;7.00;4.90;;;;;;;;;;4991902;28;20026;-74
2022/08/16 12:59:50;;;;;;;9.05;7.22;;;;;;;;;;4992378;28;20090;-71
2022/08/16 13:02:18;;;;;;;6.78;4.55;;;;;;;;;;4991857;28;20028;-72
2022/08/16 13:04:44;;;;;;;9.02;6.47;;;;;;;;;;4990253;28;20034;-74
2022/08/16 13:07:10;;;;;;;13.45;9.63;;;;;;;;;;4983675;28;20030;-76
2022/08/16 13:09:57;;;;;;;8.20;6.22;;;;;;;;;;4978117;28;20034;-74
2022/08/16 13:12:26;;;;;;;12.85;10.50;;;;;;;;;;4977050;28;20035;-76
2022/08/16 13:14:54;;;;;;;8.25;7.25;;;;;;;;;;4979418;28;20460;-74
2022/08/16 13:17:24;;;;;;;10.07;7.97;;;;;;;;;;4986068;28;20207;-74
2022/08/16 13:19:52;;;;;;;12.02;7.60;;;;;;;;;;4997423;28;20166;-76
2022/08/16 13:22:20;;;;;;;9.02;6.38;;;;;;;;;;4995079;28;20173;-76
2022/08/16 13:24:46;;;;;;;10.55;6.50;;;;;;;;;;4985372;28;20093;-73
2022/08/16 13:27:12;;;;;;;12.38;8.07;;;;;;;;;;4972647;28;20027;-75
2022/08/16 13:29:38;;;;;;;13.77;9.40;;;;;;;;;;4975071;28;20105;-75
2022/08/16 13:32:05;;;;;;;12.13;10.38;;;;;;;;;;4954620;28;20031;-74
2022/08/16 13:34:31;;;;;;;10.02;8.68;;;;;;;;;;4971058;28;20022;-74
2022/08/16 13:36:57;;;;;;;10.57;8.73;;;;;;;;;;4971606;28;20023;-74
2022/08/16 13:39:23;;;;;;;9.13;6.53;;;;;;;;;;4979681;28;20089;-76
2022/08/16 13:41:49;;;;;;;10.55;7.97;;;;;;;;;;4986506;28;20027;-74
2022/08/16 13:44:17;;;;;;;11.07;7.53;;;;;;;;;;4963577;28;20038;-72
2022/08/16 13:46:46;;;;;;;11.32;6.22;;;;;;;;;;4971393;28;20050;-75
2022/08/16 13:49:12;;;;;;;7.80;4.97;;;;;;;;;;4980062;28;20485;-74
2022/08/16 13:51:38;;;;;;;14.60;9.00;;;;;;;;;;4975420;28;20042;-75
2022/08/16 13:54:05;;;;;;;10.77;7.28;;;;;;;;;;4978911;28;20045;-74
2022/08/16 13:56:32;;;;;;;8.77;5.15;;;;;;;;;;4979582;28;20061;-74
2022/08/16 13:58:59;;;;;;;10.43;6.68;;;;;;;;;;4958769;28;20030;-76
2022/08/16 14:01:25;;;;;;;12.43;6.70;;;;;;;;;;4973918;28;20038;-76
2022/08/16 14:03:51;;;;;;;9.85;5.82;;;;;;;;;;4984828;28;20081;-74
2022/08/16 14:06:17;;;;;;;10.90;5.90;;;;;;;;;;4972911;28;20468;-74
2022/08/16 14:08:43;;;;;;;9.70;7.15;;;;;;;;;;4989399;28;20062;-76
2022/08/16 14:11:10;;;;;;;10.60;7.05;;;;;;;;;;4971921;28;20062;-75
2022/08/16 14:13:36;;;;;;;11.18;5.85;;;;;;;;;;4972959;28;20042;-76
2022/08/16 14:16:03;;;;;;;8.10;5.75;;;;;;;;;;4974089;28;20031;-78
2022/08/16 14:18:30;;;;;;;8.63;5.68;;;;;;;;;;4971154;28;20070;-77
2022/08/16 14:20:57;;;;;;;8.88;6.30;;;;;;;;;;4972231;28;20030;-75
2022/08/16 14:23:23;;;;;;;9.82;4.88;;;;;;;;;;4971910;28;20454;-78
2022/08/16 14:25:49;;;;;;;9.85;6.53;;;;;;;;;;4973128;28;20496;-78
2022/08/16 14:28:15;;;;;;;9.57;5.88;;;;;;;;;;4972341;28;20121;-82